sensor_id;sensor_type;location;lat;lon;timestamp;P1;durP1;ratioP1;P2;durP2;ratioP2
14030;SDS011;7090;49.436;8.490;2022-08-05T00:03:38;2.65;;;1.52;;
14030;SDS011;7090;49.436;8.490;2022-08-05T00:06:04;1.90;;;1.80;;
14030;SDS011;7090;49.436;8.490;2022-08-05T00:08:30;2.63;;;2.42;;
14030;SDS011;7090;49.436;8.490;2022-08-05T00:10:58;2.72;;;1.88;;
14030;SDS011;7090;49.436;8.490;2022-08-05T00:13:25;2.17;;;2.08;;
14030;SDS011;7090;49.436;8.490;2022-08-05T00:15:50;2.20;;;1.95;;
14030;SDS011;7090;49.436;8.490;2022-08-05T00:18:16;1.58;;;1.52;;
14030;SDS011;7090;49.436;8.490;2022-08-05T00:20:41;0.98;;;0.98;;
14030;SDS011;7090;49.436;8.490;2022-08-05T00:23:07;4.00;;;2.13;;
14030;SDS011;7090;49.436;8.490;2022-08-05T00:25:33;2.67;;;1.92;;
14030;SDS011;7090;49.436;8.490;2022-08-05T00:27:58;1.65;;;1.55;;
14030;SDS011;7090;49.436;8.490;2022-08-05T00:30:24;2.22;;;2.10;;
14030;SDS011;7090;49.436;8.490;2022-08-05T00:32:50;3.05;;;2.40;;
14030;SDS011;7090;49.436;8.490;2022-08-05T00:35:16;1.13;;;1.13;;
14030;SDS011;7090;49.436;8.490;2022-08-05T00:37:42;4.15;;;3.33;;
14030;SDS011;7090;49.436;8.490;2022-08-05T00:40:08;4.50;;;2.63;;
14030;SDS011;7090;49.436;8.490;2022-08-05T00:42:34;1.52;;;1.52;;
14030;SDS011;7090;49.436;8.490;2022-08-05T00:45:01;2.72;;;2.53;;
14030;SDS011;7090;49.436;8.490;2022-08-05T00:47:29;8.32;;;3.03;;
14030;SDS011;7090;49.436;8.490;2022-08-05T00:49:55;3.15;;;2.85;;
14030;SDS011;7090;49.436;8.490;2022-08-05T00:52:20;3.08;;;2.63;;
14030;SDS011;7090;49.436;8.490;2022-08-05T00:54:46;2.50;;;2.40;;
14030;SDS011;7090;49.436;8.490;2022-08-05T00:57:12;1.80;;;1.75;;
14030;SDS011;7090;49.436;8.490;2022-08-05T00:59:38;1.80;;;1.70;;
14030;SDS011;7090;49.436;8.490;2022-08-05T01:02:03;2.85;;;2.55;;
14030;SDS011;7090;49.436;8.490;2022-08-05T01:04:29;1.63;;;1.60;;
14030;SDS011;7090;49.436;8.490;2022-08-05T01:06:55;3.08;;;2.80;;
14030;SDS011;7090;49.436;8.490;2022-08-05T01:09:20;3.00;;;2.40;;
14030;SDS011;7090;49.436;8.490;2022-08-05T01:11:50;2.70;;;2.50;;
14030;SDS011;7090;49.436;8.490;2022-08-05T01:17:02;2.65;;;2.55;;
14030;SDS011;7090;49.436;8.490;2022-08-05T01:19:32;1.33;;;1.33;;
14030;SDS011;7090;49.436;8.490;2022-08-05T01:22:20;3.15;;;1.77;;
14030;SDS011;7090;49.436;8.490;2022-08-05T01:30:45;1.80;;;1.70;;
14030;SDS011;7090;49.436;8.490;2022-08-05T01:33:16;2.05;;;1.95;;
14030;SDS011;7090;49.436;8.490;2022-08-05T01:35:47;1.08;;;1.08;;
14030;SDS011;7090;49.436;8.490;2022-08-05T01:38:14;1.23;;;1.23;;
14030;SDS011;7090;49.436;8.490;2022-08-05T01:40:41;1.60;;;1.50;;
14030;SDS011;7090;49.436;8.490;2022-08-05T01:43:07;1.67;;;1.63;;
14030;SDS011;7090;49.436;8.490;2022-08-05T01:45:35;1.10;;;1.10;;
14030;SDS011;7090;49.436;8.490;2022-08-05T01:48:03;3.80;;;3.50;;
14030;SDS011;7090;49.436;8.490;2022-08-05T01:50:31;3.63;;;3.33;;
14030;SDS011;7090;49.436;8.490;2022-08-05T01:53:03;2.03;;;1.92;;
14030;SDS011;7090;49.436;8.490;2022-08-05T01:55:31;2.67;;;2.58;;
14030;SDS011;7090;49.436;8.490;2022-08-05T01:57:58;1.10;;;1.10;;
14030;SDS011;7090;49.436;8.490;2022-08-05T02:00:25;1.65;;;1.55;;
14030;SDS011;7090;49.436;8.490;2022-08-05T02:02:54;1.83;;;1.73;;
14030;SDS011;7090;49.436;8.490;2022-08-05T02:05:32;7.38;;;6.93;;
14030;SDS011;7090;49.436;8.490;2022-08-05T02:08:00;1.02;;;1.02;;
14030;SDS011;7090;49.436;8.490;2022-08-05T02:10:26;1.40;;;1.40;;
14030;SDS011;7090;49.436;8.490;2022-08-05T02:13:17;1.42;;;1.33;;
14030;SDS011;7090;49.436;8.490;2022-08-05T02:15:50;1.40;;;1.40;;
14030;SDS011;7090;49.436;8.490;2022-08-05T02:18:25;1.60;;;1.60;;
14030;SDS011;7090;49.436;8.490;2022-08-05T02:21:11;1.40;;;1.30;;
14030;SDS011;7090;49.436;8.490;2022-08-05T02:23:40;1.10;;;1.10;;
14030;SDS011;7090;49.436;8.490;2022-08-05T02:26:09;1.58;;;1.58;;
14030;SDS011;7090;49.436;8.490;2022-08-05T02:28:40;1.40;;;1.40;;
14030;SDS011;7090;49.436;8.490;2022-08-05T02:31:10;1.50;;;1.50;;
14030;SDS011;7090;49.436;8.490;2022-08-05T02:33:40;1.05;;;1.05;;
14030;SDS011;7090;49.436;8.490;2022-08-05T02:36:10;1.10;;;1.10;;
14030;SDS011;7090;49.436;8.490;2022-08-05T02:38:37;1.20;;;1.20;;
14030;SDS011;7090;49.436;8.490;2022-08-05T02:41:05;1.20;;;1.20;;
14030;SDS011;7090;49.436;8.490;2022-08-05T02:43:33;1.75;;;1.67;;
14030;SDS011;7090;49.436;8.490;2022-08-05T02:46:01;1.40;;;1.40;;
14030;SDS011;7090;49.436;8.490;2022-08-05T02:48:28;1.40;;;1.40;;
14030;SDS011;7090;49.436;8.490;2022-08-05T02:50:54;1.55;;;1.55;;
14030;SDS011;7090;49.436;8.490;2022-08-05T02:53:21;1.35;;;1.35;;
14030;SDS011;7090;49.436;8.490;2022-08-05T02:55:49;1.42;;;1.40;;
14030;SDS011;7090;49.436;8.490;2022-08-05T02:58:17;1.40;;;1.40;;
14030;SDS011;7090;49.436;8.490;2022-08-05T03:00:46;1.10;;;1.10;;
14030;SDS011;7090;49.436;8.490;2022-08-05T03:03:15;1.23;;;1.23;;
14030;SDS011;7090;49.436;8.490;2022-08-05T03:05:44;10.13;;;2.63;;
14030;SDS011;7090;49.436;8.490;2022-08-05T03:08:11;10.88;;;4.15;;
14030;SDS011;7090;49.436;8.490;2022-08-05T03:10:41;1.40;;;1.40;;
14030;SDS011;7090;49.436;8.490;2022-08-05T03:13:14;10.07;;;4.72;;
14030;SDS011;7090;49.436;8.490;2022-08-05T03:15:43;1.30;;;1.30;;
14030;SDS011;7090;49.436;8.490;2022-08-05T03:18:10;1.45;;;1.45;;
14030;SDS011;7090;49.436;8.490;2022-08-05T03:20:36;1.60;;;1.60;;
14030;SDS011;7090;49.436;8.490;2022-08-05T03:23:07;1.50;;;1.50;;
14030;SDS011;7090;49.436;8.490;2022-08-05T03:25:34;1.85;;;1.85;;
14030;SDS011;7090;49.436;8.490;2022-08-05T03:28:01;2.67;;;2.42;;
14030;SDS011;7090;49.436;8.490;2022-08-05T03:30:29;1.90;;;1.80;;
14030;SDS011;7090;49.436;8.490;2022-08-05T03:32:59;1.77;;;1.77;;
14030;SDS011;7090;49.436;8.490;2022-08-05T03:35:26;1.92;;;1.80;;
14030;SDS011;7090;49.436;8.490;2022-08-05T03:37:55;1.83;;;1.83;;
14030;SDS011;7090;49.436;8.490;2022-08-05T03:40:21;6.97;;;3.25;;
14030;SDS011;7090;49.436;8.490;2022-08-05T03:42:47;1.02;;;1.02;;
14030;SDS011;7090;49.436;8.490;2022-08-05T03:45:13;1.65;;;1.65;;
14030;SDS011;7090;49.436;8.490;2022-08-05T03:47:39;2.38;;;2.30;;
14030;SDS011;7090;49.436;8.490;2022-08-05T03:50:04;3.20;;;3.10;;
14030;SDS011;7090;49.436;8.490;2022-08-05T03:52:32;10.60;;;10.20;;
14030;SDS011;7090;49.436;8.490;2022-08-05T03:55:03;13.35;;;12.75;;
14030;SDS011;7090;49.436;8.490;2022-08-05T03:57:34;13.20;;;11.85;;
14030;SDS011;7090;49.436;8.490;2022-08-05T04:00:05;9.10;;;8.60;;
14030;SDS011;7090;49.436;8.490;2022-08-05T04:02:32;3.30;;;3.20;;
14030;SDS011;7090;49.436;8.490;2022-08-05T04:04:59;3.08;;;2.97;;
14030;SDS011;7090;49.436;8.490;2022-08-05T04:07:27;3.38;;;3.17;;
14030;SDS011;7090;49.436;8.490;2022-08-05T04:09:53;3.05;;;2.95;;
14030;SDS011;7090;49.436;8.490;2022-08-05T04:12:19;2.83;;;2.63;;
14030;SDS011;7090;49.436;8.490;2022-08-05T04:14:45;2.42;;;2.33;;
14030;SDS011;7090;49.436;8.490;2022-08-05T04:17:11;2.10;;;2.10;;
14030;SDS011;7090;49.436;8.490;2022-08-05T04:19:44;2.00;;;2.00;;
14030;SDS011;7090;49.436;8.490;2022-08-05T04:22:11;2.00;;;2.00;;
14030;SDS011;7090;49.436;8.490;2022-08-05T04:24:38;2.97;;;2.88;;
14030;SDS011;7090;49.436;8.490;2022-08-05T04:27:05;2.55;;;2.45;;
14030;SDS011;7090;49.436;8.490;2022-08-05T04:29:30;2.25;;;2.15;;
14030;SDS011;7090;49.436;8.490;2022-08-05T04:31:56;6.80;;;2.58;;
14030;SDS011;7090;49.436;8.490;2022-08-05T04:34:22;3.13;;;2.90;;
14030;SDS011;7090;49.436;8.490;2022-08-05T04:36:48;2.35;;;2.25;;
14030;SDS011;7090;49.436;8.490;2022-08-05T04:39:13;2.25;;;2.15;;
14030;SDS011;7090;49.436;8.490;2022-08-05T04:41:39;1.70;;;1.70;;
14030;SDS011;7090;49.436;8.490;2022-08-05T04:44:04;1.65;;;1.65;;
14030;SDS011;7090;49.436;8.490;2022-08-05T04:46:30;1.58;;;1.58;;
14030;SDS011;7090;49.436;8.490;2022-08-05T04:48:56;1.70;;;1.70;;
14030;SDS011;7090;49.436;8.490;2022-08-05T04:51:21;1.83;;;1.83;;
14030;SDS011;7090;49.436;8.490;2022-08-05T04:53:47;2.28;;;2.28;;
14030;SDS011;7090;49.436;8.490;2022-08-05T04:56:12;2.05;;;2.05;;
14030;SDS011;7090;49.436;8.490;2022-08-05T04:58:38;2.00;;;2.00;;
14030;SDS011;7090;49.436;8.490;2022-08-05T05:01:04;1.80;;;1.80;;
14030;SDS011;7090;49.436;8.490;2022-08-05T05:03:30;2.45;;;2.35;;
14030;SDS011;7090;49.436;8.490;2022-08-05T05:05:56;3.83;;;3.50;;
14030;SDS011;7090;49.436;8.490;2022-08-05T05:08:21;1.90;;;1.90;;
14030;SDS011;7090;49.436;8.490;2022-08-05T05:10:48;1.90;;;1.90;;
14030;SDS011;7090;49.436;8.490;2022-08-05T05:13:14;1.70;;;1.70;;
14030;SDS011;7090;49.436;8.490;2022-08-05T05:15:41;1.70;;;1.70;;
14030;SDS011;7090;49.436;8.490;2022-08-05T05:18:08;1.67;;;1.67;;
14030;SDS011;7090;49.436;8.490;2022-08-05T05:20:36;1.80;;;1.80;;
14030;SDS011;7090;49.436;8.490;2022-08-05T05:23:02;2.40;;;2.30;;
14030;SDS011;7090;49.436;8.490;2022-08-05T05:25:28;2.15;;;2.08;;
14030;SDS011;7090;49.436;8.490;2022-08-05T05:27:54;2.17;;;2.08;;
14030;SDS011;7090;49.436;8.490;2022-08-05T05:30:20;1.75;;;1.70;;
14030;SDS011;7090;49.436;8.490;2022-08-05T05:32:46;2.00;;;1.90;;
14030;SDS011;7090;49.436;8.490;2022-08-05T05:35:12;1.77;;;1.77;;
14030;SDS011;7090;49.436;8.490;2022-08-05T05:40:17;1.52;;;1.52;;
14030;SDS011;7090;49.436;8.490;2022-08-05T05:42:44;1.30;;;1.30;;
14030;SDS011;7090;49.436;8.490;2022-08-05T05:45:11;1.38;;;1.38;;
14030;SDS011;7090;49.436;8.490;2022-08-05T05:47:37;1.33;;;1.33;;
14030;SDS011;7090;49.436;8.490;2022-08-05T05:50:03;1.33;;;1.33;;
14030;SDS011;7090;49.436;8.490;2022-08-05T05:52:30;1.40;;;1.40;;
14030;SDS011;7090;49.436;8.490;2022-08-05T05:54:58;1.45;;;1.45;;
14030;SDS011;7090;49.436;8.490;2022-08-05T05:57:24;1.10;;;1.10;;
14030;SDS011;7090;49.436;8.490;2022-08-05T05:59:50;1.33;;;1.33;;
14030;SDS011;7090;49.436;8.490;2022-08-05T06:02:16;1.30;;;1.30;;
14030;SDS011;7090;49.436;8.490;2022-08-05T06:04:42;1.20;;;1.20;;
14030;SDS011;7090;49.436;8.490;2022-08-05T06:07:07;1.20;;;1.20;;
14030;SDS011;7090;49.436;8.490;2022-08-05T06:09:33;1.40;;;1.40;;
14030;SDS011;7090;49.436;8.490;2022-08-05T06:11:59;2.35;;;2.15;;
14030;SDS011;7090;49.436;8.490;2022-08-05T06:14:24;1.85;;;1.80;;
14030;SDS011;7090;49.436;8.490;2022-08-05T06:16:50;1.38;;;1.38;;
14030;SDS011;7090;49.436;8.490;2022-08-05T06:19:15;1.40;;;1.40;;
14030;SDS011;7090;49.436;8.490;2022-08-05T06:21:41;3.55;;;2.70;;
14030;SDS011;7090;49.436;8.490;2022-08-05T06:24:07;1.30;;;1.30;;
14030;SDS011;7090;49.436;8.490;2022-08-05T06:26:33;1.98;;;1.88;;
14030;SDS011;7090;49.436;8.490;2022-08-05T06:28:58;2.10;;;2.00;;
14030;SDS011;7090;49.436;8.490;2022-08-05T06:31:24;1.75;;;1.65;;
14030;SDS011;7090;49.436;8.490;2022-08-05T06:33:50;3.03;;;2.28;;
14030;SDS011;7090;49.436;8.490;2022-08-05T06:36:15;1.45;;;1.45;;
14030;SDS011;7090;49.436;8.490;2022-08-05T06:38:41;2.35;;;2.15;;
14030;SDS011;7090;49.436;8.490;2022-08-05T06:41:06;1.58;;;1.58;;
14030;SDS011;7090;49.436;8.490;2022-08-05T06:43:32;2.15;;;2.05;;
14030;SDS011;7090;49.436;8.490;2022-08-05T06:45:58;2.20;;;2.10;;
14030;SDS011;7090;49.436;8.490;2022-08-05T06:48:24;1.38;;;1.38;;
14030;SDS011;7090;49.436;8.490;2022-08-05T06:50:49;2.55;;;2.35;;
14030;SDS011;7090;49.436;8.490;2022-08-05T06:53:15;8.15;;;3.40;;
14030;SDS011;7090;49.436;8.490;2022-08-05T06:55:41;2.22;;;2.13;;
14030;SDS011;7090;49.436;8.490;2022-08-05T06:58:06;3.10;;;2.90;;
14030;SDS011;7090;49.436;8.490;2022-08-05T07:00:32;2.83;;;2.63;;
14030;SDS011;7090;49.436;8.490;2022-08-05T07:02:58;2.55;;;2.35;;
14030;SDS011;7090;49.436;8.490;2022-08-05T07:05:25;2.70;;;2.50;;
14030;SDS011;7090;49.436;8.490;2022-08-05T07:07:50;1.40;;;1.40;;
14030;SDS011;7090;49.436;8.490;2022-08-05T07:10:16;1.50;;;1.50;;
14030;SDS011;7090;49.436;8.490;2022-08-05T07:12:42;1.98;;;1.90;;
14030;SDS011;7090;49.436;8.490;2022-08-05T07:15:26;4.22;;;2.25;;
14030;SDS011;7090;49.436;8.490;2022-08-05T07:18:10;6.50;;;2.45;;
14030;SDS011;7090;49.436;8.490;2022-08-05T07:20:36;1.50;;;1.50;;
14030;SDS011;7090;49.436;8.490;2022-08-05T07:23:01;1.30;;;1.30;;
14030;SDS011;7090;49.436;8.490;2022-08-05T07:25:27;1.30;;;1.30;;
14030;SDS011;7090;49.436;8.490;2022-08-05T07:27:53;2.85;;;2.65;;
14030;SDS011;7090;49.436;8.490;2022-08-05T07:30:19;2.60;;;2.40;;
14030;SDS011;7090;49.436;8.490;2022-08-05T07:32:45;1.60;;;1.55;;
14030;SDS011;7090;49.436;8.490;2022-08-05T07:35:11;1.60;;;1.60;;
14030;SDS011;7090;49.436;8.490;2022-08-05T07:37:37;1.60;;;1.50;;
14030;SDS011;7090;49.436;8.490;2022-08-05T07:40:04;2.28;;;2.17;;
14030;SDS011;7090;49.436;8.490;2022-08-05T07:42:30;3.03;;;2.72;;
14030;SDS011;7090;49.436;8.490;2022-08-05T07:44:56;4.00;;;2.53;;
14030;SDS011;7090;49.436;8.490;2022-08-05T07:47:22;1.60;;;1.60;;
14030;SDS011;7090;49.436;8.490;2022-08-05T07:49:48;1.85;;;1.85;;
14030;SDS011;7090;49.436;8.490;2022-08-05T07:52:16;1.95;;;1.85;;
14030;SDS011;7090;49.436;8.490;2022-08-05T07:54:43;2.78;;;2.60;;
14030;SDS011;7090;49.436;8.490;2022-08-05T07:57:08;2.20;;;2.10;;
14030;SDS011;7090;49.436;8.490;2022-08-05T07:59:34;2.35;;;2.25;;
14030;SDS011;7090;49.436;8.490;2022-08-05T08:02:00;2.38;;;2.28;;
14030;SDS011;7090;49.436;8.490;2022-08-05T08:04:26;1.95;;;1.90;;
14030;SDS011;7090;49.436;8.490;2022-08-05T08:06:53;2.42;;;2.33;;
14030;SDS011;7090;49.436;8.490;2022-08-05T08:09:19;2.42;;;2.33;;
14030;SDS011;7090;49.436;8.490;2022-08-05T08:11:45;5.18;;;2.58;;
14030;SDS011;7090;49.436;8.490;2022-08-05T08:14:11;2.28;;;2.17;;
14030;SDS011;7090;49.436;8.490;2022-08-05T08:16:36;2.50;;;1.40;;
14030;SDS011;7090;49.436;8.490;2022-08-05T08:19:02;3.47;;;1.92;;
14030;SDS011;7090;49.436;8.490;2022-08-05T08:21:28;1.63;;;1.63;;
14030;SDS011;7090;49.436;8.490;2022-08-05T08:23:53;1.70;;;1.60;;
14030;SDS011;7090;49.436;8.490;2022-08-05T08:26:19;2.38;;;2.28;;
14030;SDS011;7090;49.436;8.490;2022-08-05T08:28:45;1.95;;;1.85;;
14030;SDS011;7090;49.436;8.490;2022-08-05T08:31:11;1.98;;;1.88;;
14030;SDS011;7090;49.436;8.490;2022-08-05T08:33:36;1.33;;;1.33;;
14030;SDS011;7090;49.436;8.490;2022-08-05T08:36:02;1.75;;;1.65;;
14030;SDS011;7090;49.436;8.490;2022-08-05T08:38:27;2.60;;;1.85;;
14030;SDS011;7090;49.436;8.490;2022-08-05T08:40:53;1.60;;;1.60;;
14030;SDS011;7090;49.436;8.490;2022-08-05T08:43:19;2.45;;;2.35;;
14030;SDS011;7090;49.436;8.490;2022-08-05T08:45:47;2.35;;;2.25;;
14030;SDS011;7090;49.436;8.490;2022-08-05T08:48:14;2.13;;;2.03;;
14030;SDS011;7090;49.436;8.490;2022-08-05T08:50:41;3.25;;;2.08;;
14030;SDS011;7090;49.436;8.490;2022-08-05T08:53:09;2.55;;;2.20;;
14030;SDS011;7090;49.436;8.490;2022-08-05T08:55:36;1.60;;;1.60;;
14030;SDS011;7090;49.436;8.490;2022-08-05T08:58:02;1.70;;;1.70;;
14030;SDS011;7090;49.436;8.490;2022-08-05T09:00:28;2.00;;;1.90;;
14030;SDS011;7090;49.436;8.490;2022-08-05T09:02:55;1.70;;;1.70;;
14030;SDS011;7090;49.436;8.490;2022-08-05T09:05:21;1.55;;;1.55;;
14030;SDS011;7090;49.436;8.490;2022-08-05T09:07:49;1.60;;;1.60;;
14030;SDS011;7090;49.436;8.490;2022-08-05T09:10:16;1.70;;;1.70;;
14030;SDS011;7090;49.436;8.490;2022-08-05T09:12:42;1.70;;;1.70;;
14030;SDS011;7090;49.436;8.490;2022-08-05T09:15:07;1.80;;;1.80;;
14030;SDS011;7090;49.436;8.490;2022-08-05T09:17:33;1.90;;;1.90;;
14030;SDS011;7090;49.436;8.490;2022-08-05T09:19:59;2.65;;;2.55;;
14030;SDS011;7090;49.436;8.490;2022-08-05T09:22:25;2.20;;;2.10;;
14030;SDS011;7090;49.436;8.490;2022-08-05T09:25:00;2.40;;;2.30;;
14030;SDS011;7090;49.436;8.490;2022-08-05T09:27:34;2.58;;;2.35;;
14030;SDS011;7090;49.436;8.490;2022-08-05T09:30:02;2.42;;;2.22;;
14030;SDS011;7090;49.436;8.490;2022-08-05T09:32:36;1.70;;;1.70;;
14030;SDS011;7090;49.436;8.490;2022-08-05T09:35:13;2.28;;;2.17;;
14030;SDS011;7090;49.436;8.490;2022-08-05T09:37:50;1.90;;;1.90;;
14030;SDS011;7090;49.436;8.490;2022-08-05T09:40:36;2.20;;;2.10;;
14030;SDS011;7090;49.436;8.490;2022-08-05T09:43:05;2.40;;;2.28;;
14030;SDS011;7090;49.436;8.490;2022-08-05T09:45:37;1.60;;;1.60;;
14030;SDS011;7090;49.436;8.490;2022-08-05T09:48:24;1.70;;;1.70;;
14030;SDS011;7090;49.436;8.490;2022-08-05T09:50:58;2.20;;;2.10;;
14030;SDS011;7090;49.436;8.490;2022-08-05T09:53:29;2.00;;;2.00;;
14030;SDS011;7090;49.436;8.490;2022-08-05T09:56:09;2.08;;;1.98;;
14030;SDS011;7090;49.436;8.490;2022-08-05T09:58:35;2.40;;;2.30;;
14030;SDS011;7090;49.436;8.490;2022-08-05T10:01:02;2.10;;;2.00;;
14030;SDS011;7090;49.436;8.490;2022-08-05T10:03:29;2.13;;;2.03;;
14030;SDS011;7090;49.436;8.490;2022-08-05T10:08:29;2.20;;;2.10;;
14030;SDS011;7090;49.436;8.490;2022-08-05T10:10:55;1.80;;;1.80;;
14030;SDS011;7090;49.436;8.490;2022-08-05T10:13:25;4.32;;;2.00;;
14030;SDS011;7090;49.436;8.490;2022-08-05T10:15:52;2.60;;;2.50;;
14030;SDS011;7090;49.436;8.490;2022-08-05T10:18:20;2.20;;;2.10;;
14030;SDS011;7090;49.436;8.490;2022-08-05T10:25:46;2.40;;;2.30;;
14030;SDS011;7090;49.436;8.490;2022-08-05T10:28:11;2.38;;;2.28;;
14030;SDS011;7090;49.436;8.490;2022-08-05T10:30:37;3.28;;;3.00;;
14030;SDS011;7090;49.436;8.490;2022-08-05T10:33:04;2.33;;;2.22;;
14030;SDS011;7090;49.436;8.490;2022-08-05T10:35:30;1.90;;;1.90;;
14030;SDS011;7090;49.436;8.490;2022-08-05T10:37:57;2.75;;;2.65;;
14030;SDS011;7090;49.436;8.490;2022-08-05T10:40:29;2.10;;;2.08;;
14030;SDS011;7090;49.436;8.490;2022-08-05T10:46:11;2.20;;;2.10;;
14030;SDS011;7090;49.436;8.490;2022-08-05T10:48:42;2.08;;;2.08;;
14030;SDS011;7090;49.436;8.490;2022-08-05T10:51:14;2.22;;;2.13;;
14030;SDS011;7090;49.436;8.490;2022-08-05T10:56:16;2.20;;;2.10;;
14030;SDS011;7090;49.436;8.490;2022-08-05T11:01:37;1.60;;;1.60;;
14030;SDS011;7090;49.436;8.490;2022-08-05T11:04:09;2.50;;;2.40;;
14030;SDS011;7090;49.436;8.490;2022-08-05T11:07:02;2.20;;;2.15;;
14030;SDS011;7090;49.436;8.490;2022-08-05T11:09:23;1.60;;;1.60;;
14030;SDS011;7090;49.436;8.490;2022-08-05T11:11:50;1.70;;;1.70;;
14030;SDS011;7090;49.436;8.490;2022-08-05T11:19:51;2.20;;;2.10;;
14030;SDS011;7090;49.436;8.490;2022-08-05T11:22:37;1.98;;;1.88;;
14030;SDS011;7090;49.436;8.490;2022-08-05T11:35:59;2.40;;;2.30;;
14030;SDS011;7090;49.436;8.490;2022-08-05T11:43:51;2.40;;;2.30;;
14030;SDS011;7090;49.436;8.490;2022-08-05T11:48:54;2.38;;;2.28;;
14030;SDS011;7090;49.436;8.490;2022-08-05T11:51:21;2.10;;;2.00;;
14030;SDS011;7090;49.436;8.490;2022-08-05T11:53:48;1.80;;;1.80;;
14030;SDS011;7090;49.436;8.490;2022-08-05T11:56:14;1.80;;;1.80;;
14030;SDS011;7090;49.436;8.490;2022-08-05T11:58:40;2.05;;;2.00;;
14030;SDS011;7090;49.436;8.490;2022-08-05T12:01:09;1.75;;;1.75;;
14030;SDS011;7090;49.436;8.490;2022-08-05T12:03:52;2.08;;;1.98;;
14030;SDS011;7090;49.436;8.490;2022-08-05T12:06:21;5.28;;;2.42;;
14030;SDS011;7090;49.436;8.490;2022-08-05T12:08:49;2.47;;;2.38;;
14030;SDS011;7090;49.436;8.490;2022-08-05T12:13:56;2.22;;;2.13;;
14030;SDS011;7090;49.436;8.490;2022-08-05T12:16:23;3.42;;;2.45;;
14030;SDS011;7090;49.436;8.490;2022-08-05T12:18:50;2.28;;;2.20;;
14030;SDS011;7090;49.436;8.490;2022-08-05T12:21:24;2.60;;;2.50;;
14030;SDS011;7090;49.436;8.490;2022-08-05T12:23:52;2.15;;;2.05;;
14030;SDS011;7090;49.436;8.490;2022-08-05T12:26:24;2.30;;;2.20;;
14030;SDS011;7090;49.436;8.490;2022-08-05T12:28:55;3.20;;;3.00;;
14030;SDS011;7090;49.436;8.490;2022-08-05T12:31:21;1.85;;;1.85;;
14030;SDS011;7090;49.436;8.490;2022-08-05T12:33:46;2.40;;;2.30;;
14030;SDS011;7090;49.436;8.490;2022-08-05T12:36:12;2.10;;;2.00;;
14030;SDS011;7090;49.436;8.490;2022-08-05T12:38:39;3.75;;;2.45;;
14030;SDS011;7090;49.436;8.490;2022-08-05T12:41:11;2.55;;;2.45;;
14030;SDS011;7090;49.436;8.490;2022-08-05T12:43:51;2.03;;;1.92;;
14030;SDS011;7090;49.436;8.490;2022-08-05T12:48:56;1.90;;;1.88;;
14030;SDS011;7090;49.436;8.490;2022-08-05T12:51:24;2.05;;;1.95;;
14030;SDS011;7090;49.436;8.490;2022-08-05T12:53:51;2.17;;;2.08;;
14030;SDS011;7090;49.436;8.490;2022-08-05T12:56:23;2.35;;;2.25;;
14030;SDS011;7090;49.436;8.490;2022-08-05T13:01:39;16.15;;;2.85;;
14030;SDS011;7090;49.436;8.490;2022-08-05T13:04:06;2.00;;;1.90;;
14030;SDS011;7090;49.436;8.490;2022-08-05T13:06:32;2.10;;;2.00;;
14030;SDS011;7090;49.436;8.490;2022-08-05T13:09:08;2.60;;;2.40;;
14030;SDS011;7090;49.436;8.490;2022-08-05T13:11:37;2.53;;;2.40;;
14030;SDS011;7090;49.436;8.490;2022-08-05T13:16:47;1.70;;;1.70;;
14030;SDS011;7090;49.436;8.490;2022-08-05T13:19:15;2.00;;;1.92;;
14030;SDS011;7090;49.436;8.490;2022-08-05T13:21:41;1.80;;;1.80;;
14030;SDS011;7090;49.436;8.490;2022-08-05T13:24:10;1.88;;;1.85;;
14030;SDS011;7090;49.436;8.490;2022-08-05T13:26:35;2.10;;;2.00;;
14030;SDS011;7090;49.436;8.490;2022-08-05T13:29:01;2.20;;;2.10;;
14030;SDS011;7090;49.436;8.490;2022-08-05T13:31:27;2.25;;;2.15;;
14030;SDS011;7090;49.436;8.490;2022-08-05T13:33:52;2.22;;;2.15;;
14030;SDS011;7090;49.436;8.490;2022-08-05T13:36:18;3.17;;;2.65;;
14030;SDS011;7090;49.436;8.490;2022-08-05T13:38:44;1.80;;;1.80;;
14030;SDS011;7090;49.436;8.490;2022-08-05T13:41:10;2.10;;;2.00;;
14030;SDS011;7090;49.436;8.490;2022-08-05T13:43:35;2.13;;;2.03;;
14030;SDS011;7090;49.436;8.490;2022-08-05T13:46:01;1.88;;;1.80;;
14030;SDS011;7090;49.436;8.490;2022-08-05T13:48:27;2.88;;;2.50;;
14030;SDS011;7090;49.436;8.490;2022-08-05T13:50:52;2.53;;;2.42;;
14030;SDS011;7090;49.436;8.490;2022-08-05T13:53:18;2.38;;;2.28;;
14030;SDS011;7090;49.436;8.490;2022-08-05T13:55:43;2.28;;;2.17;;
14030;SDS011;7090;49.436;8.490;2022-08-05T13:58:09;1.95;;;1.85;;
14030;SDS011;7090;49.436;8.490;2022-08-05T14:00:34;3.00;;;2.80;;
14030;SDS011;7090;49.436;8.490;2022-08-05T14:03:00;1.80;;;1.80;;
14030;SDS011;7090;49.436;8.490;2022-08-05T14:05:26;1.90;;;1.85;;
14030;SDS011;7090;49.436;8.490;2022-08-05T14:07:52;2.15;;;2.05;;
14030;SDS011;7090;49.436;8.490;2022-08-05T14:10:20;2.27;;;2.17;;
14030;SDS011;7090;49.436;8.490;2022-08-05T14:12:47;2.25;;;2.15;;
14030;SDS011;7090;49.436;8.490;2022-08-05T14:15:13;1.92;;;1.83;;
14030;SDS011;7090;49.436;8.490;2022-08-05T14:17:39;2.20;;;2.10;;
14030;SDS011;7090;49.436;8.490;2022-08-05T14:20:05;3.75;;;2.42;;
14030;SDS011;7090;49.436;8.490;2022-08-05T14:22:32;1.98;;;1.90;;
14030;SDS011;7090;49.436;8.490;2022-08-05T14:24:58;2.22;;;2.13;;
14030;SDS011;7090;49.436;8.490;2022-08-05T14:27:23;1.70;;;1.70;;
14030;SDS011;7090;49.436;8.490;2022-08-05T14:29:49;2.33;;;2.22;;
14030;SDS011;7090;49.436;8.490;2022-08-05T14:32:15;1.50;;;1.50;;
14030;SDS011;7090;49.436;8.490;2022-08-05T14:34:40;1.67;;;1.67;;
14030;SDS011;7090;49.436;8.490;2022-08-05T14:37:06;1.75;;;1.70;;
14030;SDS011;7090;49.436;8.490;2022-08-05T14:39:32;1.70;;;1.60;;
14030;SDS011;7090;49.436;8.490;2022-08-05T14:41:57;2.38;;;2.28;;
14030;SDS011;7090;49.436;8.490;2022-08-05T14:44:23;1.65;;;1.65;;
14030;SDS011;7090;49.436;8.490;2022-08-05T14:46:49;2.10;;;2.00;;
14030;SDS011;7090;49.436;8.490;2022-08-05T14:49:14;1.80;;;1.80;;
14030;SDS011;7090;49.436;8.490;2022-08-05T14:51:40;1.50;;;1.50;;
14030;SDS011;7090;49.436;8.490;2022-08-05T14:54:06;1.60;;;1.60;;
14030;SDS011;7090;49.436;8.490;2022-08-05T14:56:32;2.60;;;2.47;;
14030;SDS011;7090;49.436;8.490;2022-08-05T14:58:58;2.22;;;2.13;;
14030;SDS011;7090;49.436;8.490;2022-08-05T15:01:23;1.80;;;1.80;;
14030;SDS011;7090;49.436;8.490;2022-08-05T15:03:49;2.90;;;2.70;;
14030;SDS011;7090;49.436;8.490;2022-08-05T15:06:15;2.00;;;1.90;;
14030;SDS011;7090;49.436;8.490;2022-08-05T15:08:41;2.10;;;2.00;;
14030;SDS011;7090;49.436;8.490;2022-08-05T15:11:07;2.00;;;1.90;;
14030;SDS011;7090;49.436;8.490;2022-08-05T15:13:33;2.30;;;2.20;;
14030;SDS011;7090;49.436;8.490;2022-08-05T15:16:00;4.38;;;2.75;;
14030;SDS011;7090;49.436;8.490;2022-08-05T15:18:26;2.40;;;2.25;;
14030;SDS011;7090;49.436;8.490;2022-08-05T15:20:51;5.18;;;3.05;;
14030;SDS011;7090;49.436;8.490;2022-08-05T15:23:17;2.00;;;1.90;;
14030;SDS011;7090;49.436;8.490;2022-08-05T15:25:43;2.30;;;2.20;;
14030;SDS011;7090;49.436;8.490;2022-08-05T15:28:09;1.60;;;1.60;;
14030;SDS011;7090;49.436;8.490;2022-08-05T15:30:35;3.08;;;2.88;;
14030;SDS011;7090;49.436;8.490;2022-08-05T15:33:04;3.03;;;2.80;;
14030;SDS011;7090;49.436;8.490;2022-08-05T15:35:31;3.80;;;2.35;;
14030;SDS011;7090;49.436;8.490;2022-08-05T15:37:57;1.90;;;1.80;;
14030;SDS011;7090;49.436;8.490;2022-08-05T15:40:23;3.88;;;3.22;;
14030;SDS011;7090;49.436;8.490;2022-08-05T15:42:49;1.45;;;1.42;;
14030;SDS011;7090;49.436;8.490;2022-08-05T15:45:15;3.25;;;3.05;;
14030;SDS011;7090;49.436;8.490;2022-08-05T15:47:41;4.20;;;3.83;;
14030;SDS011;7090;49.436;8.490;2022-08-05T15:50:08;4.00;;;3.67;;
14030;SDS011;7090;49.436;8.490;2022-08-05T15:52:36;5.25;;;4.25;;
14030;SDS011;7090;49.436;8.490;2022-08-05T15:55:05;5.25;;;4.63;;
14030;SDS011;7090;49.436;8.490;2022-08-05T15:57:33;3.15;;;2.95;;
14030;SDS011;7090;49.436;8.490;2022-08-05T16:00:00;3.53;;;2.30;;
14030;SDS011;7090;49.436;8.490;2022-08-05T16:02:26;3.97;;;3.45;;
14030;SDS011;7090;49.436;8.490;2022-08-05T16:04:51;4.38;;;4.00;;
14030;SDS011;7090;49.436;8.490;2022-08-05T16:07:17;2.65;;;2.53;;